sensor_id;sensor_type;location;lat;lon;timestamp;pressure;altitude;pressure_sealevel;temperature;humidity
29907;BME280;16776;50.958;10.994;2023-05-11T00:01:44;98230.38;;;12.46;100.00
29907;BME280;16776;50.958;10.994;2023-05-11T00:04:11;98220.88;;;12.46;100.00
29907;BME280;16776;50.958;10.994;2023-05-11T00:06:38;98224.31;;;12.47;100.00
29907;BME280;16776;50.958;10.994;2023-05-11T00:09:04;98227.78;;;12.46;100.00
29907;BME280;16776;50.958;10.994;2023-05-11T00:11:33;98228.56;;;12.48;100.00
29907;BME280;16776;50.958;10.994;2023-05-11T00:13:59;98225.25;;;12.44;100.00
29907;BME280;16776;50.958;10.994;2023-05-11T00:16:26;98228.81;;;12.42;100.00
29907;BME280;16776;50.958;10.994;2023-05-11T00:18:53;98228.03;;;12.40;100.00
29907;BME280;16776;50.958;10.994;2023-05-11T00:21:19;98223.78;;;12.39;100.00
29907;BME280;16776;50.958;10.994;2023-05-11T00:23:47;98224.66;;;12.38;100.00
29907;BME280;16776;50.958;10.994;2023-05-11T00:26:13;98219.56;;;12.36;100.00
29907;BME280;16776;50.958;10.994;2023-05-11T00:28:41;98224.72;;;12.36;100.00
29907;BME280;16776;50.958;10.994;2023-05-11T00:31:09;98216.28;;;12.33;100.00
29907;BME280;16776;50.958;10.994;2023-05-11T00:33:36;98215.50;;;12.31;100.00
29907;BME280;16776;50.958;10.994;2023-05-11T00:36:02;98219.88;;;12.29;100.00
29907;BME280;16776;50.958;10.994;2023-05-11T00:38:29;98218.22;;;12.28;100.00
29907;BME280;16776;50.958;10.994;2023-05-11T00:40:56;98220.00;;;12.26;100.00
29907;BME280;16776;50.958;10.994;2023-05-11T00:43:23;98220.91;;;12.24;100.00
29907;BME280;16776;50.958;10.994;2023-05-11T00:45:51;98210.56;;;12.24;100.00
29907;BME280;16776;50.958;10.994;2023-05-11T00:48:17;98215.88;;;12.21;100.00
29907;BME280;16776;50.958;10.994;2023-05-11T00:50:44;98218.50;;;12.20;100.00
29907;BME280;16776;50.958;10.994;2023-05-11T00:53:12;98222.84;;;12.19;100.00
29907;BME280;16776;50.958;10.994;2023-05-11T00:55:39;98218.56;;;12.18;100.00
29907;BME280;16776;50.958;10.994;2023-05-11T00:58:06;98217.78;;;12.16;100.00
29907;BME280;16776;50.958;10.994;2023-05-11T01:00:32;98216.94;;;12.16;100.00
29907;BME280;16776;50.958;10.994;2023-05-11T01:03:00;98204.34;;;12.08;100.00
29907;BME280;16776;50.958;10.994;2023-05-11T01:05:35;98222.84;;;12.19;100.00
29907;BME280;16776;50.958;10.994;2023-05-11T01:08:11;98218.63;;;12.17;100.00
29907;BME280;16776;50.958;10.994;2023-05-11T01:10:41;98227.41;;;12.13;100.00
29907;BME280;16776;50.958;10.994;2023-05-11T01:13:17;98221.28;;;12.15;100.00
29907;BME280;16776;50.958;10.994;2023-05-11T01:15:49;98215.72;;;12.03;100.00
29907;BME280;16776;50.958;10.994;2023-05-11T01:18:22;98222.03;;;12.17;100.00
29907;BME280;16776;50.958;10.994;2023-05-11T01:20:53;98216.94;;;12.16;100.00
29907;BME280;16776;50.958;10.994;2023-05-11T01:23:48;98215.88;;;12.21;100.00
29907;BME280;16776;50.958;10.994;2023-05-11T01:26:46;98216.53;;;12.27;100.00
29907;BME280;16776;50.958;10.994;2023-05-11T01:29:46;98227.75;;;12.26;100.00
29907;BME280;16776;50.958;10.994;2023-05-11T01:32:18;98221.94;;;12.20;100.00
29907;BME280;16776;50.958;10.994;2023-05-11T01:34:46;98217.78;;;12.16;100.00
29907;BME280;16776;50.958;10.994;2023-05-11T01:37:20;98219.22;;;12.23;100.00
29907;BME280;16776;50.958;10.994;2023-05-11T01:39:50;98224.50;;;12.20;100.00
29907;BME280;16776;50.958;10.994;2023-05-11T01:42:21;98223.63;;;12.21;100.00
29907;BME280;16776;50.958;10.994;2023-05-11T01:44:51;98222.84;;;12.19;100.00
29907;BME280;16776;50.958;10.994;2023-05-11T01:47:21;98226.19;;;12.21;100.00
29907;BME280;16776;50.958;10.994;2023-05-11T01:49:49;98213.69;;;12.11;100.00
29907;BME280;16776;50.958;10.994;2023-05-11T01:52:19;98226.31;;;12.18;100.00
29907;BME280;16776;50.958;10.994;2023-05-11T01:54:47;98232.41;;;12.16;100.00
29907;BME280;16776;50.958;10.994;2023-05-11T01:57:15;98223.88;;;12.15;100.00
29907;BME280;16776;50.958;10.994;2023-05-11T01:59:43;98225.59;;;12.15;100.00
29907;BME280;16776;50.958;10.994;2023-05-11T02:02:11;98226.44;;;12.15;100.00
29907;BME280;16776;50.958;10.994;2023-05-11T02:04:40;98224.63;;;12.17;100.00
29907;BME280;16776;50.958;10.994;2023-05-11T02:07:10;98231.47;;;12.18;100.00
29907;BME280;16776;50.958;10.994;2023-05-11T02:09:38;98222.94;;;12.16;100.00
29907;BME280;16776;50.958;10.994;2023-05-11T02:12:06;98229.91;;;12.14;100.00
29907;BME280;16776;50.958;10.994;2023-05-11T02:14:34;98216.41;;;12.08;100.00
29907;BME280;16776;50.958;10.994;2023-05-11T02:17:03;98234.19;;;12.15;100.00
29907;BME280;16776;50.958;10.994;2023-05-11T02:19:32;98228.09;;;12.16;100.00
29907;BME280;16776;50.958;10.994;2023-05-11T02:22:01;98219.50;;;12.16;100.00
29907;BME280;16776;50.958;10.994;2023-05-11T02:24:29;98223.03;;;12.15;100.00
29907;BME280;16776;50.958;10.994;2023-05-11T02:26:56;98224.75;;;12.14;100.00
29907;BME280;16776;50.958;10.994;2023-05-11T02:29:23;98220.44;;;12.15;100.00
29907;BME280;16776;50.958;10.994;2023-05-11T02:31:55;98218.47;;;12.21;100.00
29907;BME280;16776;50.958;10.994;2023-05-11T02:34:25;98221.16;;;12.18;100.00
29907;BME280;16776;50.958;10.994;2023-05-11T02:36:58;98212.50;;;12.19;100.00
29907;BME280;16776;50.958;10.994;2023-05-11T02:39:31;98218.50;;;12.20;100.00
29907;BME280;16776;50.958;10.994;2023-05-11T02:42:00;98216.13;;;12.15;100.00
29907;BME280;16776;50.958;10.994;2023-05-11T02:44:31;98213.28;;;12.21;100.00
29907;BME280;16776;50.958;10.994;2023-05-11T02:47:02;98207.69;;;12.10;100.00
29907;BME280;16776;50.958;10.994;2023-05-11T02:49:31;98216.22;;;12.12;100.00
29907;BME280;16776;50.958;10.994;2023-05-11T02:51:59;98206.75;;;12.13;100.00
29907;BME280;16776;50.958;10.994;2023-05-11T02:54:29;98209.19;;;12.16;100.00
29907;BME280;16776;50.958;10.994;2023-05-11T02:56:57;98205.00;;;12.13;100.00
29907;BME280;16776;50.958;10.994;2023-05-11T02:59:24;98207.59;;;12.13;100.00
29907;BME280;16776;50.958;10.994;2023-05-11T03:01:51;98207.84;;;12.07;100.00
29907;BME280;16776;50.958;10.994;2023-05-11T03:04:17;98207.63;;;12.12;100.00
29907;BME280;16776;50.958;10.994;2023-05-11T03:06:44;98205.19;;;12.09;100.00
29907;BME280;16776;50.958;10.994;2023-05-11T03:09:10;98211.31;;;12.06;100.00
29907;BME280;16776;50.958;10.994;2023-05-11T03:11:39;98206.94;;;12.08;100.00
29907;BME280;16776;50.958;10.994;2023-05-11T03:14:08;98204.41;;;12.07;100.00
29907;BME280;16776;50.958;10.994;2023-05-11T03:16:36;98207.03;;;12.05;100.00
29907;BME280;16776;50.958;10.994;2023-05-11T03:19:05;98210.41;;;12.07;100.00
29907;BME280;16776;50.958;10.994;2023-05-11T03:21:33;98206.16;;;12.06;100.00
29907;BME280;16776;50.958;10.994;2023-05-11T03:24:04;98213.00;;;12.07;100.00
29907;BME280;16776;50.958;10.994;2023-05-11T03:26:32;98207.94;;;12.04;100.00
29907;BME280;16776;50.958;10.994;2023-05-11T03:29:01;98208.72;;;12.06;100.00
29907;BME280;16776;50.958;10.994;2023-05-11T03:31:30;98211.31;;;12.06;100.00
29907;BME280;16776;50.958;10.994;2023-05-11T03:33:57;98205.41;;;12.03;100.00
29907;BME280;16776;50.958;10.994;2023-05-11T03:36:25;98205.41;;;12.03;100.00
29907;BME280;16776;50.958;10.994;2023-05-11T03:38:53;98206.38;;;12.00;100.00
29907;BME280;16776;50.958;10.994;2023-05-11T03:41:22;98207.28;;;11.99;100.00
29907;BME280;16776;50.958;10.994;2023-05-11T03:43:50;98204.75;;;11.98;100.00
29907;BME280;16776;50.958;10.994;2023-05-11T03:46:20;98208.06;;;12.01;100.00
29907;BME280;16776;50.958;10.994;2023-05-11T03:48:48;98204.75;;;11.98;100.00
29907;BME280;16776;50.958;10.994;2023-05-11T03:51:16;98214.19;;;11.99;100.00
29907;BME280;16776;50.958;10.994;2023-05-11T03:53:43;98210.72;;;12.00;100.00
29907;BME280;16776;50.958;10.994;2023-05-11T03:56:09;98208.06;;;12.01;100.00
29907;BME280;16776;50.958;10.994;2023-05-11T03:58:37;98201.03;;;12.05;100.00
29907;BME280;16776;50.958;10.994;2023-05-11T04:01:05;98207.00;;;12.07;100.00
29907;BME280;16776;50.958;10.994;2023-05-11T04:03:34;98207.00;;;12.07;100.00
29907;BME280;16776;50.958;10.994;2023-05-11T04:06:01;98207.94;;;12.04;100.00
29907;BME280;16776;50.958;10.994;2023-05-11T04:08:28;98205.31;;;12.06;100.00
29907;BME280;16776;50.958;10.994;2023-05-11T04:10:54;98204.34;;;12.08;100.00
29907;BME280;16776;50.958;10.994;2023-05-11T04:13:21;98203.38;;;12.11;100.00
29907;BME280;16776;50.958;10.994;2023-05-11T04:15:47;98203.31;;;12.12;100.00
29907;BME280;16776;50.958;10.994;2023-05-11T04:18:14;98205.00;;;12.13;100.00
29907;BME280;16776;50.958;10.994;2023-05-11T04:20:42;98206.44;;;12.20;100.00
29907;BME280;16776;50.958;10.994;2023-05-11T04:23:08;98207.09;;;12.26;100.00
29907;BME280;16776;50.958;10.994;2023-05-11T04:25:35;98208.38;;;12.36;100.00
29907;BME280;16776;50.958;10.994;2023-05-11T04:28:02;98209.72;;;12.46;100.00
29907;BME280;16776;50.958;10.994;2023-05-11T04:30:28;98206.81;;;12.53;100.00
29907;BME280;16776;50.958;10.994;2023-05-11T04:32:55;98203.16;;;12.59;100.00
29907;BME280;16776;50.958;10.994;2023-05-11T04:35:22;98206.50;;;12.61;100.00
29907;BME280;16776;50.958;10.994;2023-05-11T04:37:50;98205.63;;;12.62;100.00
29907;BME280;16776;50.958;10.994;2023-05-11T04:40:17;98211.78;;;12.58;100.00
29907;BME280;16776;50.958;10.994;2023-05-11T04:42:43;98208.41;;;12.56;100.00
29907;BME280;16776;50.958;10.994;2023-05-11T04:45:10;98205.97;;;12.53;100.00
29907;BME280;16776;50.958;10.994;2023-05-11T04:47:37;98208.72;;;12.48;100.00
29907;BME280;16776;50.958;10.994;2023-05-11T04:50:04;98209.72;;;12.46;100.00
29907;BME280;16776;50.958;10.994;2023-05-11T04:52:31;98210.72;;;12.42;100.00
29907;BME280;16776;50.958;10.994;2023-05-11T04:54:59;98202.97;;;12.42;100.00
29907;BME280;16776;50.958;10.994;2023-05-11T04:57:25;98212.66;;;12.37;100.00
29907;BME280;16776;50.958;10.994;2023-05-11T04:59:52;98201.63;;;12.33;100.00
29907;BME280;16776;50.958;10.994;2023-05-11T05:02:19;98207.69;;;12.32;100.00
29907;BME280;16776;50.958;10.994;2023-05-11T05:04:48;98206.91;;;12.30;100.00
29907;BME280;16776;50.958;10.994;2023-05-11T05:07:14;98207.75;;;12.31;100.00
29907;BME280;16776;50.958;10.994;2023-05-11T05:09:41;98205.16;;;12.31;100.00
29907;BME280;16776;50.958;10.994;2023-05-11T05:12:09;98203.38;;;12.33;100.00
29907;BME280;16776;50.958;10.994;2023-05-11T05:14:35;98210.22;;;12.34;100.00
29907;BME280;16776;50.958;10.994;2023-05-11T05:17:02;98179.84;;;12.18;100.00
29907;BME280;16776;50.958;10.994;2023-05-11T05:19:28;98213.44;;;12.39;100.00
29907;BME280;16776;50.958;10.994;2023-05-11T05:21:56;98199.63;;;12.40;100.00
29907;BME280;16776;50.958;10.994;2023-05-11T05:24:22;98202.13;;;12.41;100.00
29907;BME280;16776;50.958;10.994;2023-05-11T05:26:49;98204.66;;;12.43;100.00
29907;BME280;16776;50.958;10.994;2023-05-11T05:29:16;98206.22;;;12.47;100.00
29907;BME280;16776;50.958;10.994;2023-05-11T05:31:43;98207.13;;;12.46;100.00
29907;BME280;16776;50.958;10.994;2023-05-11T05:34:10;98208.72;;;12.48;100.00
29907;BME280;16776;50.958;10.994;2023-05-11T05:36:36;98209.53;;;12.50;100.00
29907;BME280;16776;50.958;10.994;2023-05-11T05:39:03;98206.88;;;12.52;100.00
29907;BME280;16776;50.958;10.994;2023-05-11T05:41:34;98212.81;;;12.54;100.00
29907;BME280;16776;50.958;10.994;2023-05-11T05:44:01;98218.75;;;12.56;100.00
29907;BME280;16776;50.958;10.994;2023-05-11T05:46:29;98215.16;;;12.60;100.00
29907;BME280;16776;50.958;10.994;2023-05-11T05:48:55;98218.59;;;12.60;100.00
29907;BME280;16776;50.958;10.994;2023-05-11T05:51:22;98212.47;;;12.63;100.00
29907;BME280;16776;50.958;10.994;2023-05-11T05:53:48;98215.84;;;12.65;100.00
29907;BME280;16776;50.958;10.994;2023-05-11T05:56:15;98223.44;;;12.68;100.00
29907;BME280;16776;50.958;10.994;2023-05-11T05:58:41;98219.00;;;12.72;100.00
29907;BME280;16776;50.958;10.994;2023-05-11T06:01:08;98226.66;;;12.73;100.00
29907;BME280;16776;50.958;10.994;2023-05-11T06:03:36;98224.66;;;12.80;100.00
29907;BME280;16776;50.958;10.994;2023-05-11T06:06:04;98224.66;;;12.80;100.00
29907;BME280;16776;50.958;10.994;2023-05-11T06:08:31;98225.44;;;12.82;100.00
29907;BME280;16776;50.958;10.994;2023-05-11T06:10:57;98225.34;;;12.85;100.00
29907;BME280;16776;50.958;10.994;2023-05-11T06:13:24;98229.53;;;12.87;100.00
29907;BME280;16776;50.958;10.994;2023-05-11T06:15:50;98229.41;;;12.90;100.00
29907;BME280;16776;50.958;10.994;2023-05-11T06:18:17;98225.00;;;12.92;100.00
29907;BME280;16776;50.958;10.994;2023-05-11T06:20:45;98224.75;;;12.98;100.00
29907;BME280;16776;50.958;10.994;2023-05-11T06:23:12;98219.59;;;12.98;100.00
29907;BME280;16776;50.958;10.994;2023-05-11T06:25:38;98226.28;;;13.02;100.00
29907;BME280;16776;50.958;10.994;2023-05-11T06:28:05;98224.50;;;13.05;100.00
29907;BME280;16776;50.958;10.994;2023-05-11T06:30:32;98233.84;;;13.07;100.00
29907;BME280;16776;50.958;10.994;2023-05-11T06:32:58;98231.13;;;13.10;100.00
29907;BME280;16776;50.958;10.994;2023-05-11T06:35:25;98229.25;;;13.14;100.00
29907;BME280;16776;50.958;10.994;2023-05-11T06:37:53;98228.97;;;13.20;100.00
29907;BME280;16776;50.958;10.994;2023-05-11T06:40:20;98227.28;;;13.19;100.00
29907;BME280;16776;50.958;10.994;2023-05-11T06:42:46;98228.84;;;13.23;100.00
29907;BME280;16776;50.958;10.994;2023-05-11T06:45:13;98227.97;;;13.24;100.00
29907;BME280;16776;50.958;10.994;2023-05-11T06:47:39;98224.44;;;13.25;100.00
29907;BME280;16776;50.958;10.994;2023-05-11T06:50:06;98229.56;;;13.26;100.00
29907;BME280;16776;50.958;10.994;2023-05-11T06:52:34;98222.63;;;13.27;100.00
29907;BME280;16776;50.958;10.994;2023-05-11T06:55:03;98217.34;;;13.30;100.00
29907;BME280;16776;50.958;10.994;2023-05-11T06:57:30;98218.25;;;13.29;100.00
29907;BME280;16776;50.958;10.994;2023-05-11T06:59:56;98224.16;;;13.31;100.00
29907;BME280;16776;50.958;10.994;2023-05-11T07:02:23;98222.38;;;13.33;100.00
29907;BME280;16776;50.958;10.994;2023-05-11T07:04:49;98222.25;;;13.36;100.00
29907;BME280;16776;50.958;10.994;2023-05-11T07:07:16;98218.66;;;13.38;100.00
29907;BME280;16776;50.958;10.994;2023-05-11T07:09:42;98221.97;;;13.42;100.00
29907;BME280;16776;50.958;10.994;2023-05-11T07:12:10;98223.44;;;13.48;100.00
29907;BME280;16776;50.958;10.994;2023-05-11T07:14:37;98220.00;;;13.47;100.00
29907;BME280;16776;50.958;10.994;2023-05-11T07:17:03;98231.03;;;13.51;100.00
29907;BME280;16776;50.958;10.994;2023-05-11T07:19:30;98227.50;;;13.53;100.00
29907;BME280;16776;50.958;10.994;2023-05-11T07:21:57;98222.22;;;13.56;100.00
29907;BME280;16776;50.958;10.994;2023-05-11T07:24:23;98222.13;;;13.58;100.00
29907;BME280;16776;50.958;10.994;2023-05-11T07:26:50;98221.09;;;13.62;100.00
29907;BME280;16776;50.958;10.994;2023-05-11T07:29:18;98217.41;;;13.67;100.00
29907;BME280;16776;50.958;10.994;2023-05-11T07:31:45;98220.81;;;13.68;100.00
29907;BME280;16776;50.958;10.994;2023-05-11T07:34:12;98215.50;;;13.71;100.00
29907;BME280;16776;50.958;10.994;2023-05-11T07:36:39;98216.22;;;13.74;100.00
29907;BME280;16776;50.958;10.994;2023-05-11T07:39:05;98218.63;;;13.77;100.00
29907;BME280;16776;50.958;10.994;2023-05-11T07:41:32;98223.59;;;13.82;100.00
29907;BME280;16776;50.958;10.994;2023-05-11T07:43:59;98220.88;;;13.85;100.00
29907;BME280;16776;50.958;10.994;2023-05-11T07:46:27;98225.00;;;13.89;100.00
29907;BME280;16776;50.958;10.994;2023-05-11T07:48:54;98225.00;;;13.89;100.00
29907;BME280;16776;50.958;10.994;2023-05-11T07:51:21;98227.44;;;13.92;100.00
29907;BME280;16776;50.958;10.994;2023-05-11T07:53:47;98223.06;;;13.94;100.00
29907;BME280;16776;50.958;10.994;2023-05-11T07:56:14;98228.13;;;13.96;100.00
29907;BME280;16776;50.958;10.994;2023-05-11T07:58:41;98230.66;;;13.97;100.00
29907;BME280;16776;50.958;10.994;2023-05-11T08:01:07;98231.50;;;13.98;100.00
29907;BME280;16776;50.958;10.994;2023-05-11T08:03:35;98221.75;;;14.03;100.00
29907;BME280;16776;50.958;10.994;2023-05-11T08:06:02;98225.25;;;14.02;100.00
29907;BME280;16776;50.958;10.994;2023-05-11T08:08:29;98229.53;;;14.03;100.00
29907;BME280;16776;50.958;10.994;2023-05-11T08:10:56;98230.31;;;14.05;100.00
29907;BME280;16776;50.958;10.994;2023-05-11T08:13:22;98230.13;;;14.08;100.00
29907;BME280;16776;50.958;10.994;2023-05-11T08:15:49;98230.00;;;14.11;100.00
29907;BME280;16776;50.958;10.994;2023-05-11T08:18:15;98231.63;;;14.13;100.00
29907;BME280;16776;50.958;10.994;2023-05-11T08:20:43;98238.25;;;14.19;100.00
29907;BME280;16776;50.958;10.994;2023-05-11T08:23:10;98230.56;;;14.17;100.00
29907;BME280;16776;50.958;10.994;2023-05-11T08:25:49;98233.63;;;14.26;100.00
29907;BME280;16776;50.958;10.994;2023-05-11T08:28:17;98237.25;;;14.21;100.00
29907;BME280;16776;50.958;10.994;2023-05-11T08:30:44;98238.09;;;14.22;100.00
29907;BME280;16776;50.958;10.994;2023-05-11T08:33:10;98234.59;;;14.23;100.00
29907;BME280;16776;50.958;10.994;2023-05-11T08:35:38;98237.19;;;14.23;100.00
29907;BME280;16776;50.958;10.994;2023-05-11T08:38:06;98239.72;;;14.25;100.00
29907;BME280;16776;50.958;10.994;2023-05-11T08:40:32;98237.13;;;14.25;100.00
29907;BME280;16776;50.958;10.994;2023-05-11T08:43:05;98230.94;;;14.27;100.00
29907;BME280;16776;50.958;10.994;2023-05-11T08:45:33;98236.06;;;14.29;100.00
29907;BME280;16776;50.958;10.994;2023-05-11T08:48:02;98236.00;;;14.30;100.00
29907;BME280;16776;50.958;10.994;2023-05-11T08:50:28;98233.16;;;14.35;100.00
29907;BME280;16776;50.958;10.994;2023-05-11T08:52:55;98232.97;;;14.39;100.00
29907;BME280;16776;50.958;10.994;2023-05-11T08:55:25;98234.28;;;14.48;100.00
29907;BME280;16776;50.958;10.994;2023-05-11T08:57:52;98234.16;;;14.51;100.00
29907;BME280;16776;50.958;10.994;2023-05-11T09:00:19;98231.31;;;14.55;100.00
29907;BME280;16776;50.958;10.994;2023-05-11T09:02:47;98233.63;;;14.61;100.00
29907;BME280;16776;50.958;10.994;2023-05-11T09:05:15;98233.31;;;14.68;100.00
29907;BME280;16776;50.958;10.994;2023-05-11T09:07:42;98232.94;;;14.75;100.00
29907;BME280;16776;50.958;10.994;2023-05-11T09:10:10;98225.00;;;14.78;100.00
29907;BME280;16776;50.958;10.994;2023-05-11T09:12:38;98234.06;;;14.87;100.00
29907;BME280;16776;50.958;10.994;2023-05-11T09:15:06;98234.66;;;14.92;100.00
29907;BME280;16776;50.958;10.994;2023-05-11T09:17:33;98233.53;;;14.97;100.00
29907;BME280;16776;50.958;10.994;2023-05-11T09:20:01;98229.69;;;15.05;100.00
29907;BME280;16776;50.958;10.994;2023-05-11T09:22:31;98231.06;;;15.12;100.00
29907;BME280;16776;50.958;10.994;2023-05-11T09:24:58;98223.16;;;15.15;100.00
29907;BME280;16776;50.958;10.994;2023-05-11T09:27:25;98225.56;;;15.18;100.00
29907;BME280;16776;50.958;10.994;2023-05-11T09:29:54;98221.81;;;15.23;100.00
29907;BME280;16776;50.958;10.994;2023-05-11T09:32:20;98229.59;;;15.23;100.00
29907;BME280;16776;50.958;10.994;2023-05-11T09:34:47;98224.25;;;15.26;100.00
29907;BME280;16776;50.958;10.994;2023-05-11T09:37:15;98227.44;;;15.31;100.00
29907;BME280;16776;50.958;10.994;2023-05-11T09:39:42;98227.41;;;15.33;100.00
29907;BME280;16776;50.958;10.994;2023-05-11T09:42:16;98226.16;;;15.40;100.00
29907;BME280;16776;50.958;10.994;2023-05-11T09:44:44;98227.16;;;15.37;100.00
29907;BME280;16776;50.958;10.994;2023-05-11T09:47:13;98225.25;;;15.41;100.00
29907;BME280;16776;50.958;10.994;2023-05-11T09:49:40;98232.19;;;15.40;100.00
29907;BME280;16776;50.958;10.994;2023-05-11T09:52:09;98226.91;;;15.42;100.00
29907;BME280;16776;50.958;10.994;2023-05-11T09:54:40;98230.19;;;15.46;100.00
29907;BME280;16776;50.958;10.994;2023-05-11T09:57:22;98223.06;;;15.49;100.00
29907;BME280;16776;50.958;10.994;2023-05-11T09:59:49;98226.25;;;15.38;100.00
29907;BME280;16776;50.958;10.994;2023-05-11T10:02:19;98215.84;;;15.38;100.00
29907;BME280;16776;50.958;10.994;2023-05-11T10:04:46;98222.81;;;15.38;100.00
29907;BME280;16776;50.958;10.994;2023-05-11T10:07:23;98217.03;;;15.49;100.00
29907;BME280;16776;50.958;10.994;2023-05-11T10:09:51;98219.22;;;15.40;100.00
29907;BME280;16776;50.958;10.994;2023-05-11T10:12:20;98223.31;;;15.45;100.00
29907;BME280;16776;50.958;10.994;2023-05-11T10:14:48;98205.06;;;15.46;100.00
29907;BME280;16776;50.958;10.994;2023-05-11T10:17:17;98207.41;;;15.51;100.00
29907;BME280;16776;50.958;10.994;2023-05-11T10:19:45;98208.94;;;15.55;100.00
29907;BME280;16776;50.958;10.994;2023-05-11T10:22:12;98199.03;;;15.61;100.00
29907;BME280;16776;50.958;10.994;2023-05-11T10:24:38;98203.00;;;15.68;100.00
29907;BME280;16776;50.958;10.994;2023-05-11T10:27:05;98207.78;;;15.76;100.00
29907;BME280;16776;50.958;10.994;2023-05-11T10:29:32;98203.09;;;15.83;100.00
29907;BME280;16776;50.958;10.994;2023-05-11T10:32:00;98203.50;;;15.91;100.00
29907;BME280;16776;50.958;10.994;2023-05-11T10:34:33;98202.97;;;16.00;100.00
29907;BME280;16776;50.958;10.994;2023-05-11T10:37:00;98198.63;;;16.00;100.00
29907;BME280;16776;50.958;10.994;2023-05-11T10:39:27;98205.28;;;16.06;100.00
29907;BME280;16776;50.958;10.994;2023-05-11T10:44:59;98199.22;;;16.21;100.00
29907;BME280;16776;50.958;10.994;2023-05-11T10:50:44;98193.28;;;16.19;100.00
29907;BME280;16776;50.958;10.994;2023-05-11T10:53:23;98192.00;;;16.10;100.00
29907;BME280;16776;50.958;10.994;2023-05-11T10:56:08;98192.16;;;16.07;100.00
29907;BME280;16776;50.958;10.994;2023-05-11T10:58:54;98194.97;;;16.04;100.00
29907;BME280;16776;50.958;10.994;2023-05-11T11:01:37;98192.50;;;16.01;100.00
29907;BME280;16776;50.958;10.994;2023-05-11T11:04:06;98193.13;;;15.91;100.00
29907;BME280;16776;50.958;10.994;2023-05-11T11:06:35;98193.88;;;15.93;100.00
29907;BME280;16776;50.958;10.994;2023-05-11T11:09:04;98193.19;;;15.89;100.00
29907;BME280;16776;50.958;10.994;2023-05-11T11:11:36;98190.34;;;15.94;100.00
29907;BME280;16776;50.958;10.994;2023-05-11T11:14:04;98189.25;;;15.82;100.00
29907;BME280;16776;50.958;10.994;2023-05-11T11:16:32;98201.91;;;15.88;100.00
29907;BME280;16776;50.958;10.994;2023-05-11T11:22:05;98194.22;;;15.87;100.00
29907;BME280;16776;50.958;10.994;2023-05-11T11:24:44;98193.97;;;15.91;100.00
29907;BME280;16776;50.958;10.994;2023-05-11T11:27:13;98200.75;;;15.78;100.00
29907;BME280;16776;50.958;10.994;2023-05-11T11:29:40;98200.06;;;15.74;100.00
29907;BME280;16776;50.958;10.994;2023-05-11T11:32:25;98202.25;;;15.82;100.00
29907;BME280;16776;50.958;10.994;2023-05-11T11:34:52;98203.19;;;15.65;100.00
29907;BME280;16776;50.958;10.994;2023-05-11T11:37:20;98197.22;;;15.63;100.00
29907;BME280;16776;50.958;10.994;2023-05-11T11:39:52;98202.59;;;15.60;100.00
29907;BME280;16776;50.958;10.994;2023-05-11T11:42:33;98200.16;;;15.57;100.00
29907;BME280;16776;50.958;10.994;2023-05-11T11:45:24;98198.72;;;15.52;100.00
29907;BME280;16776;50.958;10.994;2023-05-11T11:48:07;98210.34;;;15.45;100.00
29907;BME280;16776;50.958;10.994;2023-05-11T11:50:34;98209.28;;;15.31;100.00
29907;BME280;16776;50.958;10.994;2023-05-11T11:53:02;98207.47;;;15.33;100.00
29907;BME280;16776;50.958;10.994;2023-05-11T11:55:49;98200.88;;;15.44;100.00
29907;BME280;16776;50.958;10.994;2023-05-11T12:01:20;98195.88;;;15.40;100.00
29907;BME280;16776;50.958;10.994;2023-05-11T12:03:58;98194.19;;;15.55;100.00
29907;BME280;16776;50.958;10.994;2023-05-11T12:06:36;98190.69;;;15.56;100.00
29907;BME280;16776;50.958;10.994;2023-05-11T12:09:05;98189.69;;;15.74;100.00
29907;BME280;16776;50.958;10.994;2023-05-11T12:11:32;98194.31;;;15.85;100.00
29907;BME280;16776;50.958;10.994;2023-05-11T12:13:59;98184.81;;;16.00;100.00
29907;BME280;16776;50.958;10.994;2023-05-11T12:16:27;98177.88;;;16.16;100.00
29907;BME280;16776;50.958;10.994;2023-05-11T12:18:54;98174.97;;;16.36;100.00
29907;BME280;16776;50.958;10.994;2023-05-11T12:21:23;98162.03;;;16.50;100.00
29907;BME280;16776;50.958;10.994;2023-05-11T12:23:51;98173.31;;;16.79;100.00
29907;BME280;16776;50.958;10.994;2023-05-11T12:26:20;98171.31;;;16.98;100.00
29907;BME280;16776;50.958;10.994;2023-05-11T12:28:51;98169.56;;;17.13;100.00
29907;BME280;16776;50.958;10.994;2023-05-11T12:31:18;98162.78;;;17.25;100.00
29907;BME280;16776;50.958;10.994;2023-05-11T12:33:45;98160.44;;;17.34;100.00
29907;BME280;16776;50.958;10.994;2023-05-11T12:36:13;98165.16;;;17.42;100.00
29907;BME280;16776;50.958;10.994;2023-05-11T12:38:43;98167.94;;;17.53;100.00
29907;BME280;16776;50.958;10.994;2023-05-11T12:41:10;98166.28;;;17.52;100.00
29907;BME280;16776;50.958;10.994;2023-05-11T12:43:38;98166.84;;;17.57;100.00
29907;BME280;16776;50.958;10.994;2023-05-11T12:46:05;98165.91;;;17.58;100.00
29907;BME280;16776;50.958;10.994;2023-05-11T12:48:31;98166.84;;;17.57;100.00
29907;BME280;16776;50.958;10.994;2023-05-11T12:50:58;98165.91;;;17.58;100.00
29907;BME280;16776;50.958;10.994;2023-05-11T12:53:24;98161.53;;;17.59;100.00
29907;BME280;16776;50.958;10.994;2023-05-11T12:55:58;98163.63;;;17.66;100.00
29907;BME280;16776;50.958;10.994;2023-05-11T12:58:25;98160.47;;;17.61;100.00
29907;BME280;16776;50.958;10.994;2023-05-11T13:00:53;98149.34;;;17.59;100.00